Private Wetterstation Ehingen
Wetterdaten: aktuell Montag, 11.12.2017 23:20
Datum Zeit Temperatur ThetaE Apparent Tem Schwlewert Luftfeuchte Gewitter-dex Luftdruck Regen Wind Richtung Richtung T Regen Regenrate UV Solar Taupunkt Windchill Windben
11.12.2017 23:20 2,4 C 17,9 C -1,2 C 3,5 C 91 % 0 cb 992,2 hPa 0,0 l/m 9,4 km/h (2 Bft) W 270 0 min 0,000 mm 0,0 UV-I 0 W/m 1,1 C -0,3 C 11,2 km/h (2 Bft)
11.12.2017 23:15 2,4 C 18,0 C -1,2 C 3,5 C 91 % 0 cb 991,1 hPa 0,0 l/m 9,4 km/h (2 Bft) W-SW 254 0 min 0,000 mm 0,0 UV-I 0 W/m 1,1 C -0,3 C 16,8 km/h (3 Bft)
11.12.2017 23:10 2,4 C 18,0 C -1,4 C 3,5 C 91 % 0 cb 991,1 hPa 0,0 l/m 10,3 km/h (2 Bft) S-SO 160 0 min 0,000 mm 0,0 UV-I 0 W/m 1,1 C -1,0 C 15,9 km/h (3 Bft)
11.12.2017 23:05 2,4 C 18,0 C -1,4 C 3,5 C 91 % 0 cb 991,1 hPa 0,0 l/m 10,3 km/h (2 Bft) SW 235 0 min 0,000 mm 0,0 UV-I 0 W/m 1,1 C -1,0 C 21,1 km/h (4 Bft)
11.12.2017 23:00 2,4 C 18,0 C -2,1 C 3,5 C 91 % 0 cb 991,1 hPa 0,0 l/m 14,0 km/h (3 Bft) SW 231 0 min 0,000 mm 0,0 UV-I 0 W/m 1,1 C -3,5 C 21,1 km/h (4 Bft)
11.12.2017 22:55 2,4 C 18,0 C -1,2 C 3,5 C 91 % 0 cb 991,1 hPa 0,0 l/m 9,4 km/h (2 Bft) S 171 0 min 0,000 mm 0,0 UV-I 0 W/m 1,1 C -0,3 C 13,1 km/h (3 Bft)
11.12.2017 22:50 2,4 C 18,0 C -1,6 C 3,8 C 91 % 0 cb 991,1 hPa 0,0 l/m 11,2 km/h (2 Bft) W-SW 253 0 min 0,000 mm 0,0 UV-I 0 W/m 1,1 C -1,7 C 17,3 km/h (3 Bft)
11.12.2017 22:45 2,5 C 18,1 C -1,1 C 3,8 C 92 % 0 cb 991,1 hPa 0,0 l/m 9,4 km/h (2 Bft) N 353 0 min 0,000 mm 0,0 UV-I 0 W/m 1,3 C -0,2 C 11,2 km/h (2 Bft)
11.12.2017 22:40 2,5 C 18,1 C -2,0 C 3,8 C 92 % 0 cb 991,1 hPa 0,0 l/m 14,0 km/h (3 Bft) S-SO 166 0 min 0,000 mm 0,0 UV-I 0 W/m 1,3 C -3,4 C 22,9 km/h (4 Bft)
11.12.2017 22:35 2,5 C 18,1 C -1,1 C 3,8 C 92 % 0 cb 991,1 hPa 0,0 l/m 9,4 km/h (2 Bft) W 279 0 min 0,000 mm 0,0 UV-I 0 W/m 1,3 C -0,2 C 13,1 km/h (3 Bft)
11.12.2017 22:30 2,5 C 18,1 C -1,3 C 3,7 C 92 % 0 cb 991,1 hPa 0,0 l/m 10,3 km/h (2 Bft) S 169 0 min 0,000 mm 0,0 UV-I 0 W/m 1,3 C -0,9 C 11,2 km/h (2 Bft)
11.12.2017 22:25 2,5 C 18,0 C -1,3 C 3,7 C 91 % 0 cb 991,1 hPa 0,0 l/m 10,3 km/h (2 Bft) S-SW 212 0 min 0,000 mm 0,0 UV-I 0 W/m 1,2 C -0,9 C 13,1 km/h (3 Bft)
11.12.2017 22:20 2,5 C 18,0 C -0,8 C 3,9 C 91 % 0 cb 991,1 hPa 0,0 l/m 7,5 km/h (2 Bft) S-SO 147 0 min 0,000 mm 0,0 UV-I 0 W/m 1,2 C 1,4 C 10,3 km/h (2 Bft)
11.12.2017 22:15 2,6 C 18,3 C -0,6 C 3,9 C 91 % 0 cb 991,0 hPa 0,0 l/m 7,5 km/h (2 Bft) S 189 0 min 0,000 mm 0,0 UV-I 0 W/m 1,3 C 1,5 C 11,2 km/h (2 Bft)
11.12.2017 22:10 2,6 C 18,3 C -0,8 C 3,9 C 91 % 0 cb 991,0 hPa 0,0 l/m 8,4 km/h (2 Bft) SW 229 0 min 0,000 mm 0,0 UV-I 0 W/m 1,3 C 0,7 C 11,2 km/h (2 Bft)
11.12.2017 22:05 2,6 C 18,3 C -0,8 C 3,9 C 91 % 0 cb 991,0 hPa 0,0 l/m 8,4 km/h (2 Bft) SW 219 0 min 0,000 mm 0,0 UV-I 0 W/m 1,3 C 0,7 C 12,2 km/h (2 Bft)
11.12.2017 22:00 2,6 C 18,3 C -0,6 C 3,9 C 91 % 0 cb 991,0 hPa 0,0 l/m 7,5 km/h (2 Bft) W 259 0 min 0,000 mm 0,0 UV-I 0 W/m 1,3 C 1,5 C 12,2 km/h (2 Bft)
11.12.2017 21:55 2,6 C 18,3 C -1,0 C 4,1 C 91 % 0 cb 991,0 hPa 0,0 l/m 9,4 km/h (2 Bft) W-SW 250 0 min 0,000 mm 0,0 UV-I 0 W/m 1,3 C -0,1 C 15,0 km/h (3 Bft)
11.12.2017 21:50 2,7 C 18,5 C -0,7 C 4,1 C 91 % 0 cb 991,0 hPa 0,0 l/m 8,4 km/h (2 Bft) SW 236 0 min 1,800 mm 0,0 UV-I 0 W/m 1,4 C 0,8 C 8,4 km/h (2 Bft)
11.12.2017 21:45 2,7 C 18,5 C -0,7 C 4,4 C 91 % 0 cb 990,0 hPa 0,0 l/m 8,4 km/h (2 Bft) W-SW 242 0 min 1,800 mm 0,0 UV-I 0 W/m 1,4 C 0,8 C 13,1 km/h (3 Bft)
11.12.2017 21:40 2,8 C 18,8 C -1,1 C 4,4 C 92 % 0 cb 989,9 hPa 0,3 l/m 11,2 km/h (2 Bft) S-SW 196 5 min 1,800 mm 0,0 UV-I 0 W/m 1,6 C -1,2 C 16,8 km/h (3 Bft)
11.12.2017 21:35 2,8 C 18,8 C -0,9 C 4,6 C 92 % 0 cb 989,9 hPa 0,0 l/m 10,3 km/h (2 Bft) W 265 0 min 0,000 mm 0,0 UV-I 0 W/m 1,6 C -0,6 C 13,1 km/h (3 Bft)
11.12.2017 21:30 2,8 C 18,9 C -0,9 C 4,6 C 93 % 0 cb 989,9 hPa 0,0 l/m 10,3 km/h (2 Bft) SO 143 0 min 0,000 mm 0,0 UV-I 0 W/m 1,8 C -0,6 C 15,9 km/h (3 Bft)
11.12.2017 21:25 2,8 C 18,9 C -1,1 C 4,8 C 93 % 0 cb 989,9 hPa 0,0 l/m 11,2 km/h (2 Bft) SW 233 0 min 0,000 mm 0,0 UV-I 0 W/m 1,8 C -1,2 C 15,9 km/h (3 Bft)
11.12.2017 21:20 2,9 C 19,0 C -1,0 C 4,8 C 93 % 0 cb 989,9 hPa 0,0 l/m 11,2 km/h (2 Bft) S-SO 165 0 min 0,000 mm 0,0 UV-I 0 W/m 1,9 C -1,1 C 17,3 km/h (3 Bft)
11.12.2017 21:15 2,9 C 19,0 C -0,3 C 5,0 C 93 % 0 cb 989,9 hPa 0,0 l/m 7,5 km/h (2 Bft) NO 43 0 min 0,000 mm 0,0 UV-I 0 W/m 1,9 C 1,9 C 11,2 km/h (2 Bft)
11.12.2017 21:10 3,0 C 19,1 C 0,2 C 5,0 C 93 % 0 cb 989,9 hPa 0,0 l/m 5,6 km/h (2 Bft) W-SW 257 0 min 0,000 mm 0,0 UV-I 0 W/m 2,0 C 3,0 C 8,4 km/h (2 Bft)
11.12.2017 21:05 3,0 C 19,1 C -0,5 C 5,0 C 93 % 0 cb 989,9 hPa 0,0 l/m 9,4 km/h (2 Bft) S 180 0 min 0,000 mm 0,0 UV-I 0 W/m 2,0 C 0,3 C 12,2 km/h (2 Bft)
11.12.2017 21:00 3,0 C 19,1 C -0,1 C 5,0 C 93 % 0 cb 989,9 hPa 0,0 l/m 7,5 km/h (2 Bft) SW 216 0 min 1,800 mm 0,0 UV-I 0 W/m 2,0 C 2,0 C 12,2 km/h (2 Bft)
11.12.2017 20:55 3,0 C 19,1 C -0,1 C 4,8 C 93 % 0 cb 989,9 hPa 0,0 l/m 7,5 km/h (2 Bft) S 183 0 min 1,800 mm 0,0 UV-I 0 W/m 2,0 C 2,0 C 18,3 km/h (3 Bft)
11.12.2017 20:50 3,0 C 19,0 C -0,2 C 4,8 C 92 % 0 cb 989,9 hPa 0,3 l/m 7,5 km/h (2 Bft) W-SW 257 5 min 3,600 mm 0,0 UV-I 0 W/m 1,8 C 2,0 C 12,2 km/h (2 Bft)
11.12.2017 20:45 3,0 C 19,0 C -0,2 C 4,7 C 92 % 0 cb 989,9 hPa 0,0 l/m 7,5 km/h (2 Bft) W-SW 251 0 min 1,800 mm 0,0 UV-I 0 W/m 1,8 C 2,0 C 12,2 km/h (2 Bft)
11.12.2017 20:40 3,0 C 19,0 C 0,2 C 4,7 C 91 % 0 cb 989,9 hPa 0,3 l/m 5,6 km/h (2 Bft) SW 217 5 min 1,800 mm 0,0 UV-I 0 W/m 1,7 C 3,0 C 11,2 km/h (2 Bft)
11.12.2017 20:35 3,0 C 19,0 C 0,4 C 4,7 C 91 % 0 cb 989,9 hPa 0,0 l/m 4,7 km/h (1 Bft) SO 143 0 min 0,000 mm 0,0 UV-I 0 W/m 1,7 C 3,0 C 7,5 km/h (2 Bft)
11.12.2017 20:30 3,0 C 19,0 C 0,2 C 4,5 C 91 % 0 cb 988,8 hPa 0,0 l/m 5,6 km/h (2 Bft) S 181 0 min 1,800 mm 0,0 UV-I 0 W/m 1,7 C 3,0 C 6,6 km/h (2 Bft)
11.12.2017 20:25 3,0 C 18,9 C 0,3 C 4,5 C 90 % 0 cb 988,8 hPa 0,0 l/m 4,7 km/h (1 Bft) S 181 0 min 1,800 mm 0,0 UV-I 0 W/m 1,5 C 3,0 C 9,4 km/h (2 Bft)
11.12.2017 20:20 3,0 C 18,9 C 0,0 C 4,5 C 90 % 0 cb 988,8 hPa 0,3 l/m 6,6 km/h (2 Bft) SW 220 5 min 1,800 mm 0,0 UV-I 0 W/m 1,5 C 2,8 C 10,3 km/h (2 Bft)
11.12.2017 20:15 3,0 C 18,9 C 0,2 C 4,7 C 90 % 0 cb 988,8 hPa 0,0 l/m 5,6 km/h (2 Bft) W-SW 254 0 min 1,800 mm 0,0 UV-I 0 W/m 1,5 C 3,0 C 8,4 km/h (2 Bft)
11.12.2017 20:10 3,1 C 19,0 C -0,1 C 4,7 C 90 % 0 cb 988,8 hPa 0,0 l/m 7,5 km/h (2 Bft) W-SW 249 0 min 1,800 mm 0,0 UV-I 0 W/m 1,6 C 2,1 C 8,4 km/h (2 Bft)
11.12.2017 20:05 3,1 C 19,0 C -0,1 C 4,8 C 90 % 0 cb 988,8 hPa 0,3 l/m 7,5 km/h (2 Bft) W-NW 294 5 min 3,600 mm 0,0 UV-I 0 W/m 1,6 C 2,1 C 9,4 km/h (2 Bft)
11.12.2017 20:00 3,2 C 19,0 C 0,0 C 4,8 C 89 % 0 cb 988,8 hPa 0,0 l/m 7,5 km/h (2 Bft) W-SW 238 0 min 1,800 mm 0,0 UV-I 0 W/m 1,6 C 2,2 C 10,3 km/h (2 Bft)
_ Min-Zeit 06:00 05:55 01:15 06:00 15:00 23:20 14:30 - 18:55 - - - - - - 00:15 01:15 18:25
Minimum _ 1,4 C 16,6 C -2,8 C 2,1 C 84 % 0 cb 981,1 hPa - 0,0 km/h (0 Bft) - - - - - - 0,5 C -4,9 C 0,0 km/h (0 Bft)
_ Max-Zeit 15:30 14:40 14:40 14:45 10:50 23:20 23:20 21:40 01:15 - - 21:40 20:50 14:00 09:05 14:40 15:30 22:40
Maximum _ 4,4 C 21,0 C 2,8 C 6,8 C 95 % 0 cb 992,2 hPa 0,3 l/m 15,8 km/h
W (3 Bft)
- - 5 min 3,600 mm 0,1 UV-I 43 W/m 2,4 C 4,4 C 22,9 km/h
S-SO (4 Bft)
Durchschnitt _ 2,7 C 18,5 C 0,3 C 4,1 C 91 % 0 cb 987,5 hPa #4,5 l/m 3,3 km/h (1 Bft) W - #1:15 h #79,800 mm 0,1 UV-I 9 W/m 1,4 C 2,0 C 5,2 km/h (1 Bft)